sensor_id;sensor_type;location;lat;lon;timestamp;P1;durP1;ratioP1;P2;durP2;ratioP2
5939;SDS011;2995;-31.998;115.906;2023-04-15T00:00:37;14.37;;;3.23;;
5939;SDS011;2995;-31.998;115.906;2023-04-15T00:03:08;13.93;;;2.90;;
5939;SDS011;2995;-31.998;115.906;2023-04-15T00:05:40;11.57;;;2.97;;
5939;SDS011;2995;-31.998;115.906;2023-04-15T00:08:11;7.50;;;2.57;;
5939;SDS011;2995;-31.998;115.906;2023-04-15T00:10:44;7.63;;;2.73;;
5939;SDS011;2995;-31.998;115.906;2023-04-15T00:13:16;12.70;;;2.50;;
5939;SDS011;2995;-31.998;115.906;2023-04-15T00:15:47;9.20;;;2.20;;
5939;SDS011;2995;-31.998;115.906;2023-04-15T00:18:18;5.87;;;2.23;;
5939;SDS011;2995;-31.998;115.906;2023-04-15T00:20:50;10.63;;;2.70;;
5939;SDS011;2995;-31.998;115.906;2023-04-15T00:23:21;12.57;;;3.20;;
5939;SDS011;2995;-31.998;115.906;2023-04-15T00:25:54;6.57;;;2.00;;
5939;SDS011;2995;-31.998;115.906;2023-04-15T00:28:25;6.37;;;2.53;;
5939;SDS011;2995;-31.998;115.906;2023-04-15T00:30:57;8.00;;;1.90;;
5939;SDS011;2995;-31.998;115.906;2023-04-15T00:33:28;5.17;;;2.30;;
5939;SDS011;2995;-31.998;115.906;2023-04-15T00:35:59;9.90;;;3.37;;
5939;SDS011;2995;-31.998;115.906;2023-04-15T00:38:31;7.10;;;2.10;;
5939;SDS011;2995;-31.998;115.906;2023-04-15T00:41:04;8.37;;;2.50;;
5939;SDS011;2995;-31.998;115.906;2023-04-15T00:43:35;9.23;;;2.50;;
5939;SDS011;2995;-31.998;115.906;2023-04-15T00:46:07;5.70;;;2.13;;
5939;SDS011;2995;-31.998;115.906;2023-04-15T00:48:39;4.03;;;2.10;;
5939;SDS011;2995;-31.998;115.906;2023-04-15T00:51:11;8.97;;;2.10;;
5939;SDS011;2995;-31.998;115.906;2023-04-15T00:53:43;6.63;;;1.93;;
5939;SDS011;2995;-31.998;115.906;2023-04-15T00:56:16;10.17;;;2.77;;
5939;SDS011;2995;-31.998;115.906;2023-04-15T00:58:50;2.90;;;1.37;;
5939;SDS011;2995;-31.998;115.906;2023-04-15T01:01:21;9.40;;;1.87;;
5939;SDS011;2995;-31.998;115.906;2023-04-15T01:03:55;14.80;;;1.90;;
5939;SDS011;2995;-31.998;115.906;2023-04-15T01:06:26;7.67;;;1.80;;
5939;SDS011;2995;-31.998;115.906;2023-04-15T01:08:57;6.47;;;1.60;;
5939;SDS011;2995;-31.998;115.906;2023-04-15T01:11:31;6.40;;;2.03;;
5939;SDS011;2995;-31.998;115.906;2023-04-15T01:14:03;6.70;;;1.70;;
5939;SDS011;2995;-31.998;115.906;2023-04-15T01:16:35;8.70;;;2.20;;
5939;SDS011;2995;-31.998;115.906;2023-04-15T01:19:07;6.40;;;1.83;;
5939;SDS011;2995;-31.998;115.906;2023-04-15T01:21:38;7.07;;;3.00;;
5939;SDS011;2995;-31.998;115.906;2023-04-15T01:24:10;7.63;;;2.00;;
5939;SDS011;2995;-31.998;115.906;2023-04-15T01:26:46;6.40;;;1.70;;
5939;SDS011;2995;-31.998;115.906;2023-04-15T01:29:18;7.03;;;1.80;;
5939;SDS011;2995;-31.998;115.906;2023-04-15T01:31:50;5.67;;;1.90;;
5939;SDS011;2995;-31.998;115.906;2023-04-15T01:34:22;5.50;;;2.00;;
5939;SDS011;2995;-31.998;115.906;2023-04-15T01:36:53;7.63;;;2.13;;
5939;SDS011;2995;-31.998;115.906;2023-04-15T01:39:25;4.53;;;1.77;;
5939;SDS011;2995;-31.998;115.906;2023-04-15T01:41:59;8.33;;;2.00;;
5939;SDS011;2995;-31.998;115.906;2023-04-15T01:44:30;5.00;;;1.60;;
5939;SDS011;2995;-31.998;115.906;2023-04-15T01:47:01;9.13;;;2.03;;
5939;SDS011;2995;-31.998;115.906;2023-04-15T01:49:33;10.20;;;2.00;;
5939;SDS011;2995;-31.998;115.906;2023-04-15T01:52:04;6.47;;;2.00;;
5939;SDS011;2995;-31.998;115.906;2023-04-15T01:54:35;4.20;;;1.40;;
5939;SDS011;2995;-31.998;115.906;2023-04-15T01:57:09;3.40;;;1.20;;
5939;SDS011;2995;-31.998;115.906;2023-04-15T01:59:40;4.77;;;1.37;;
5939;SDS011;2995;-31.998;115.906;2023-04-15T02:02:11;5.87;;;1.63;;
5939;SDS011;2995;-31.998;115.906;2023-04-15T02:04:42;8.47;;;1.27;;
5939;SDS011;2995;-31.998;115.906;2023-04-15T02:07:14;3.80;;;1.47;;
5939;SDS011;2995;-31.998;115.906;2023-04-15T02:09:45;4.80;;;1.43;;
5939;SDS011;2995;-31.998;115.906;2023-04-15T02:12:18;9.43;;;1.97;;
5939;SDS011;2995;-31.998;115.906;2023-04-15T02:14:49;4.33;;;1.40;;
5939;SDS011;2995;-31.998;115.906;2023-04-15T02:17:21;5.50;;;1.30;;
5939;SDS011;2995;-31.998;115.906;2023-04-15T02:19:52;4.37;;;1.60;;
5939;SDS011;2995;-31.998;115.906;2023-04-15T02:22:25;2.37;;;1.30;;
5939;SDS011;2995;-31.998;115.906;2023-04-15T02:24:57;2.03;;;1.10;;
5939;SDS011;2995;-31.998;115.906;2023-04-15T02:27:30;3.80;;;1.10;;
5939;SDS011;2995;-31.998;115.906;2023-04-15T02:30:01;4.70;;;1.20;;
5939;SDS011;2995;-31.998;115.906;2023-04-15T02:32:33;5.93;;;1.60;;
5939;SDS011;2995;-31.998;115.906;2023-04-15T02:35:05;3.27;;;1.20;;
5939;SDS011;2995;-31.998;115.906;2023-04-15T02:37:37;3.53;;;1.50;;
5939;SDS011;2995;-31.998;115.906;2023-04-15T02:40:11;6.27;;;1.83;;
5939;SDS011;2995;-31.998;115.906;2023-04-15T02:42:44;4.63;;;1.27;;
5939;SDS011;2995;-31.998;115.906;2023-04-15T02:45:15;4.37;;;1.30;;
5939;SDS011;2995;-31.998;115.906;2023-04-15T02:47:49;3.50;;;1.43;;
5939;SDS011;2995;-31.998;115.906;2023-04-15T02:50:20;7.33;;;1.60;;
5939;SDS011;2995;-31.998;115.906;2023-04-15T02:52:52;2.23;;;1.30;;
5939;SDS011;2995;-31.998;115.906;2023-04-15T02:55:24;6.93;;;1.13;;
5939;SDS011;2995;-31.998;115.906;2023-04-15T02:57:57;2.07;;;1.10;;
5939;SDS011;2995;-31.998;115.906;2023-04-15T03:00:28;2.90;;;1.00;;
5939;SDS011;2995;-31.998;115.906;2023-04-15T03:03:02;1.20;;;0.90;;
5939;SDS011;2995;-31.998;115.906;2023-04-15T03:05:33;5.60;;;1.20;;
5939;SDS011;2995;-31.998;115.906;2023-04-15T03:08:06;8.70;;;1.63;;
5939;SDS011;2995;-31.998;115.906;2023-04-15T03:10:37;3.00;;;1.17;;
5939;SDS011;2995;-31.998;115.906;2023-04-15T03:13:10;4.47;;;1.20;;
5939;SDS011;2995;-31.998;115.906;2023-04-15T03:15:41;4.63;;;1.63;;
5939;SDS011;2995;-31.998;115.906;2023-04-15T03:18:13;3.67;;;1.17;;
5939;SDS011;2995;-31.998;115.906;2023-04-15T03:20:44;7.13;;;1.23;;
5939;SDS011;2995;-31.998;115.906;2023-04-15T03:23:19;3.60;;;1.00;;
5939;SDS011;2995;-31.998;115.906;2023-04-15T03:25:50;4.73;;;1.10;;
5939;SDS011;2995;-31.998;115.906;2023-04-15T03:28:25;4.53;;;1.37;;
5939;SDS011;2995;-31.998;115.906;2023-04-15T03:30:56;2.73;;;1.00;;
5939;SDS011;2995;-31.998;115.906;2023-04-15T03:33:27;4.80;;;1.40;;
5939;SDS011;2995;-31.998;115.906;2023-04-15T03:35:59;5.23;;;1.40;;
5939;SDS011;2995;-31.998;115.906;2023-04-15T03:38:30;3.77;;;1.00;;
5939;SDS011;2995;-31.998;115.906;2023-04-15T03:41:01;2.57;;;0.90;;
5939;SDS011;2995;-31.998;115.906;2023-04-15T03:43:35;2.50;;;1.03;;
5939;SDS011;2995;-31.998;115.906;2023-04-15T03:46:06;3.23;;;1.07;;
5939;SDS011;2995;-31.998;115.906;2023-04-15T03:48:37;2.80;;;1.23;;
5939;SDS011;2995;-31.998;115.906;2023-04-15T03:51:08;3.43;;;1.27;;
5939;SDS011;2995;-31.998;115.906;2023-04-15T03:53:40;5.40;;;0.97;;
5939;SDS011;2995;-31.998;115.906;2023-04-15T03:56:11;5.03;;;1.23;;
5939;SDS011;2995;-31.998;115.906;2023-04-15T03:58:44;4.03;;;1.20;;
5939;SDS011;2995;-31.998;115.906;2023-04-15T04:01:15;3.43;;;1.20;;
5939;SDS011;2995;-31.998;115.906;2023-04-15T04:03:47;3.70;;;1.53;;
5939;SDS011;2995;-31.998;115.906;2023-04-15T04:06:18;8.53;;;1.67;;
5939;SDS011;2995;-31.998;115.906;2023-04-15T04:08:49;2.80;;;1.03;;
5939;SDS011;2995;-31.998;115.906;2023-04-15T04:11:21;4.93;;;1.70;;
5939;SDS011;2995;-31.998;115.906;2023-04-15T04:13:55;3.13;;;1.30;;
5939;SDS011;2995;-31.998;115.906;2023-04-15T04:16:26;4.50;;;1.00;;
5939;SDS011;2995;-31.998;115.906;2023-04-15T04:18:58;2.20;;;0.90;;
5939;SDS011;2995;-31.998;115.906;2023-04-15T04:21:29;3.90;;;1.20;;
5939;SDS011;2995;-31.998;115.906;2023-04-15T04:24:01;3.53;;;1.10;;
5939;SDS011;2995;-31.998;115.906;2023-04-15T04:26:33;5.07;;;1.20;;
5939;SDS011;2995;-31.998;115.906;2023-04-15T04:29:06;1.40;;;0.90;;
5939;SDS011;2995;-31.998;115.906;2023-04-15T04:31:37;3.80;;;1.20;;
5939;SDS011;2995;-31.998;115.906;2023-04-15T04:34:09;4.23;;;1.17;;
5939;SDS011;2995;-31.998;115.906;2023-04-15T04:36:40;6.63;;;1.40;;
5939;SDS011;2995;-31.998;115.906;2023-04-15T04:39:11;4.70;;;1.30;;
5939;SDS011;2995;-31.998;115.906;2023-04-15T04:41:42;3.30;;;1.20;;
5939;SDS011;2995;-31.998;115.906;2023-04-15T04:44:16;5.80;;;1.20;;
5939;SDS011;2995;-31.998;115.906;2023-04-15T04:46:47;3.07;;;1.20;;
5939;SDS011;2995;-31.998;115.906;2023-04-15T04:49:18;2.93;;;1.10;;
5939;SDS011;2995;-31.998;115.906;2023-04-15T04:51:50;5.20;;;1.27;;
5939;SDS011;2995;-31.998;115.906;2023-04-15T04:54:21;2.43;;;1.00;;
5939;SDS011;2995;-31.998;115.906;2023-04-15T04:56:53;3.80;;;1.13;;
5939;SDS011;2995;-31.998;115.906;2023-04-15T04:59:26;5.20;;;0.97;;
5939;SDS011;2995;-31.998;115.906;2023-04-15T05:01:57;3.70;;;1.30;;
5939;SDS011;2995;-31.998;115.906;2023-04-15T05:04:28;2.57;;;1.03;;
5939;SDS011;2995;-31.998;115.906;2023-04-15T05:06:59;3.63;;;1.00;;
5939;SDS011;2995;-31.998;115.906;2023-04-15T05:09:31;5.20;;;1.27;;
5939;SDS011;2995;-31.998;115.906;2023-04-15T05:12:02;3.13;;;1.70;;
5939;SDS011;2995;-31.998;115.906;2023-04-15T05:14:36;2.47;;;1.23;;
5939;SDS011;2995;-31.998;115.906;2023-04-15T05:17:07;3.20;;;1.30;;
5939;SDS011;2995;-31.998;115.906;2023-04-15T05:19:39;3.47;;;1.00;;
5939;SDS011;2995;-31.998;115.906;2023-04-15T05:22:10;3.90;;;1.50;;
5939;SDS011;2995;-31.998;115.906;2023-04-15T05:24:41;5.23;;;1.27;;
5939;SDS011;2995;-31.998;115.906;2023-04-15T05:27:13;3.20;;;1.03;;
5939;SDS011;2995;-31.998;115.906;2023-04-15T05:29:46;3.13;;;1.10;;
5939;SDS011;2995;-31.998;115.906;2023-04-15T05:32:17;4.17;;;1.00;;
5939;SDS011;2995;-31.998;115.906;2023-04-15T05:34:48;5.73;;;1.33;;
5939;SDS011;2995;-31.998;115.906;2023-04-15T05:37:20;3.23;;;1.10;;
5939;SDS011;2995;-31.998;115.906;2023-04-15T05:39:51;7.80;;;1.60;;
5939;SDS011;2995;-31.998;115.906;2023-04-15T05:42:22;5.97;;;1.00;;
5939;SDS011;2995;-31.998;115.906;2023-04-15T05:44:55;5.20;;;1.37;;
5939;SDS011;2995;-31.998;115.906;2023-04-15T05:47:26;4.13;;;1.30;;
5939;SDS011;2995;-31.998;115.906;2023-04-15T05:49:58;4.33;;;1.17;;
5939;SDS011;2995;-31.998;115.906;2023-04-15T05:52:29;3.47;;;1.10;;
5939;SDS011;2995;-31.998;115.906;2023-04-15T05:55:00;2.47;;;1.20;;
5939;SDS011;2995;-31.998;115.906;2023-04-15T05:57:31;2.33;;;1.03;;
5939;SDS011;2995;-31.998;115.906;2023-04-15T06:00:05;2.87;;;0.83;;
5939;SDS011;2995;-31.998;115.906;2023-04-15T06:02:37;1.70;;;1.13;;
5939;SDS011;2995;-31.998;115.906;2023-04-15T06:05:09;3.27;;;1.20;;
5939;SDS011;2995;-31.998;115.906;2023-04-15T06:07:40;4.60;;;1.10;;
5939;SDS011;2995;-31.998;115.906;2023-04-15T06:10:12;3.40;;;1.20;;
5939;SDS011;2995;-31.998;115.906;2023-04-15T06:12:43;3.67;;;1.10;;
5939;SDS011;2995;-31.998;115.906;2023-04-15T06:15:16;6.73;;;1.20;;
5939;SDS011;2995;-31.998;115.906;2023-04-15T06:17:47;4.27;;;1.17;;
5939;SDS011;2995;-31.998;115.906;2023-04-15T06:20:18;2.60;;;1.77;;
5939;SDS011;2995;-31.998;115.906;2023-04-15T06:22:50;4.73;;;1.23;;
5939;SDS011;2995;-31.998;115.906;2023-04-15T06:25:21;5.20;;;1.30;;
5939;SDS011;2995;-31.998;115.906;2023-04-15T06:27:53;3.67;;;1.10;;
5939;SDS011;2995;-31.998;115.906;2023-04-15T06:30:26;3.17;;;1.33;;
5939;SDS011;2995;-31.998;115.906;2023-04-15T06:32:57;8.30;;;1.00;;
5939;SDS011;2995;-31.998;115.906;2023-04-15T06:35:30;4.60;;;1.20;;
5939;SDS011;2995;-31.998;115.906;2023-04-15T06:38:01;3.30;;;0.90;;
5939;SDS011;2995;-31.998;115.906;2023-04-15T06:40:33;2.47;;;1.00;;
5939;SDS011;2995;-31.998;115.906;2023-04-15T06:43:04;2.03;;;1.03;;
5939;SDS011;2995;-31.998;115.906;2023-04-15T06:45:38;2.33;;;0.80;;
5939;SDS011;2995;-31.998;115.906;2023-04-15T06:48:09;2.67;;;0.90;;
5939;SDS011;2995;-31.998;115.906;2023-04-15T06:50:40;1.53;;;0.90;;
5939;SDS011;2995;-31.998;115.906;2023-04-15T06:53:12;2.60;;;1.00;;
5939;SDS011;2995;-31.998;115.906;2023-04-15T06:55:44;1.43;;;0.80;;
5939;SDS011;2995;-31.998;115.906;2023-04-15T06:58:15;6.23;;;1.33;;
5939;SDS011;2995;-31.998;115.906;2023-04-15T07:00:48;1.80;;;0.93;;
5939;SDS011;2995;-31.998;115.906;2023-04-15T07:03:21;4.93;;;0.80;;
5939;SDS011;2995;-31.998;115.906;2023-04-15T07:05:52;1.77;;;0.70;;
5939;SDS011;2995;-31.998;115.906;2023-04-15T07:08:24;3.00;;;1.30;;
5939;SDS011;2995;-31.998;115.906;2023-04-15T07:10:55;2.77;;;1.10;;
5939;SDS011;2995;-31.998;115.906;2023-04-15T07:13:26;3.20;;;0.93;;
5939;SDS011;2995;-31.998;115.906;2023-04-15T07:16:01;2.67;;;1.10;;
5939;SDS011;2995;-31.998;115.906;2023-04-15T07:18:32;2.80;;;1.20;;
5939;SDS011;2995;-31.998;115.906;2023-04-15T07:21:04;2.03;;;1.10;;
5939;SDS011;2995;-31.998;115.906;2023-04-15T07:23:35;3.90;;;1.30;;
5939;SDS011;2995;-31.998;115.906;2023-04-15T07:26:07;2.67;;;1.03;;
5939;SDS011;2995;-31.998;115.906;2023-04-15T07:28:38;3.23;;;1.03;;
5939;SDS011;2995;-31.998;115.906;2023-04-15T07:31:11;2.03;;;0.90;;
5939;SDS011;2995;-31.998;115.906;2023-04-15T07:33:43;7.27;;;1.10;;
5939;SDS011;2995;-31.998;115.906;2023-04-15T07:36:14;2.30;;;0.83;;
5939;SDS011;2995;-31.998;115.906;2023-04-15T07:38:46;4.00;;;0.90;;
5939;SDS011;2995;-31.998;115.906;2023-04-15T07:41:17;5.73;;;1.03;;
5939;SDS011;2995;-31.998;115.906;2023-04-15T07:43:49;5.07;;;0.90;;
5939;SDS011;2995;-31.998;115.906;2023-04-15T07:46:22;3.13;;;1.10;;
5939;SDS011;2995;-31.998;115.906;2023-04-15T07:48:53;2.83;;;1.10;;
5939;SDS011;2995;-31.998;115.906;2023-04-15T07:51:24;3.80;;;1.03;;
5939;SDS011;2995;-31.998;115.906;2023-04-15T07:53:56;5.67;;;1.03;;
5939;SDS011;2995;-31.998;115.906;2023-04-15T07:56:27;2.37;;;0.90;;
5939;SDS011;2995;-31.998;115.906;2023-04-15T07:58:58;1.23;;;0.80;;
5939;SDS011;2995;-31.998;115.906;2023-04-15T08:01:33;3.23;;;1.17;;
5939;SDS011;2995;-31.998;115.906;2023-04-15T08:04:04;4.93;;;1.20;;
5939;SDS011;2995;-31.998;115.906;2023-04-15T08:06:36;3.30;;;0.90;;
5939;SDS011;2995;-31.998;115.906;2023-04-15T08:09:07;2.03;;;0.80;;
5939;SDS011;2995;-31.998;115.906;2023-04-15T08:11:39;2.57;;;0.90;;
5939;SDS011;2995;-31.998;115.906;2023-04-15T08:14:10;3.30;;;1.10;;
5939;SDS011;2995;-31.998;115.906;2023-04-15T08:16:44;8.30;;;1.20;;
5939;SDS011;2995;-31.998;115.906;2023-04-15T08:19:15;4.00;;;1.10;;
5939;SDS011;2995;-31.998;115.906;2023-04-15T08:21:46;5.50;;;1.20;;
5939;SDS011;2995;-31.998;115.906;2023-04-15T08:24:18;4.23;;;1.17;;
5939;SDS011;2995;-31.998;115.906;2023-04-15T08:26:49;5.30;;;1.20;;
5939;SDS011;2995;-31.998;115.906;2023-04-15T08:29:20;2.53;;;1.00;;
5939;SDS011;2995;-31.998;115.906;2023-04-15T08:31:55;2.80;;;1.00;;
5939;SDS011;2995;-31.998;115.906;2023-04-15T08:34:28;1.23;;;0.70;;
5939;SDS011;2995;-31.998;115.906;2023-04-15T08:37:00;3.53;;;1.17;;
5939;SDS011;2995;-31.998;115.906;2023-04-15T08:39:31;3.93;;;0.90;;
5939;SDS011;2995;-31.998;115.906;2023-04-15T08:42:03;5.50;;;1.00;;
5939;SDS011;2995;-31.998;115.906;2023-04-15T08:44:40;6.43;;;1.13;;
5939;SDS011;2995;-31.998;115.906;2023-04-15T08:47:14;3.20;;;1.43;;
5939;SDS011;2995;-31.998;115.906;2023-04-15T08:49:49;6.03;;;0.90;;
5939;SDS011;2995;-31.998;115.906;2023-04-15T08:52:24;3.03;;;1.00;;
5939;SDS011;2995;-31.998;115.906;2023-04-15T08:54:56;2.20;;;0.90;;
5939;SDS011;2995;-31.998;115.906;2023-04-15T08:57:28;1.83;;;1.00;;
5939;SDS011;2995;-31.998;115.906;2023-04-15T09:00:00;3.90;;;1.03;;
5939;SDS011;2995;-31.998;115.906;2023-04-15T09:02:35;5.40;;;0.70;;
5939;SDS011;2995;-31.998;115.906;2023-04-15T09:05:07;5.63;;;0.87;;
5939;SDS011;2995;-31.998;115.906;2023-04-15T09:07:38;2.77;;;0.90;;
5939;SDS011;2995;-31.998;115.906;2023-04-15T09:10:09;2.07;;;0.80;;
5939;SDS011;2995;-31.998;115.906;2023-04-15T09:12:41;1.33;;;0.73;;
5939;SDS011;2995;-31.998;115.906;2023-04-15T09:15:12;1.83;;;0.90;;
5939;SDS011;2995;-31.998;115.906;2023-04-15T09:17:45;4.40;;;1.00;;
5939;SDS011;2995;-31.998;115.906;2023-04-15T09:20:17;1.50;;;0.77;;
5939;SDS011;2995;-31.998;115.906;2023-04-15T09:22:49;8.53;;;1.20;;
5939;SDS011;2995;-31.998;115.906;2023-04-15T09:25:27;2.23;;;0.90;;
5939;SDS011;2995;-31.998;115.906;2023-04-15T09:27:59;3.67;;;1.07;;
5939;SDS011;2995;-31.998;115.906;2023-04-15T09:30:32;1.53;;;0.80;;
5939;SDS011;2995;-31.998;115.906;2023-04-15T09:33:05;4.80;;;1.10;;
5939;SDS011;2995;-31.998;115.906;2023-04-15T09:35:36;3.63;;;1.00;;
5939;SDS011;2995;-31.998;115.906;2023-04-15T09:38:07;3.47;;;1.07;;
5939;SDS011;2995;-31.998;115.906;2023-04-15T09:40:39;3.50;;;0.80;;
5939;SDS011;2995;-31.998;115.906;2023-04-15T09:43:11;2.93;;;1.33;;
5939;SDS011;2995;-31.998;115.906;2023-04-15T09:45:46;2.07;;;0.80;;
5939;SDS011;2995;-31.998;115.906;2023-04-15T09:48:21;3.23;;;0.87;;
5939;SDS011;2995;-31.998;115.906;2023-04-15T09:50:54;1.23;;;0.80;;
5939;SDS011;2995;-31.998;115.906;2023-04-15T09:53:27;3.17;;;0.77;;
5939;SDS011;2995;-31.998;115.906;2023-04-15T09:56:01;7.60;;;1.50;;
5939;SDS011;2995;-31.998;115.906;2023-04-15T09:58:34;2.97;;;0.90;;
5939;SDS011;2995;-31.998;115.906;2023-04-15T10:01:07;1.30;;;0.60;;
5939;SDS011;2995;-31.998;115.906;2023-04-15T10:03:41;4.23;;;0.90;;
5939;SDS011;2995;-31.998;115.906;2023-04-15T10:06:12;4.37;;;1.00;;
5939;SDS011;2995;-31.998;115.906;2023-04-15T10:08:44;13.13;;;1.20;;
5939;SDS011;2995;-31.998;115.906;2023-04-15T10:11:16;7.07;;;1.00;;
5939;SDS011;2995;-31.998;115.906;2023-04-15T10:13:49;2.77;;;0.80;;
5939;SDS011;2995;-31.998;115.906;2023-04-15T10:16:20;8.30;;;1.07;;
5939;SDS011;2995;-31.998;115.906;2023-04-15T10:18:57;3.50;;;1.00;;
5939;SDS011;2995;-31.998;115.906;2023-04-15T10:21:32;3.40;;;1.10;;
5939;SDS011;2995;-31.998;115.906;2023-04-15T10:24:05;2.00;;;1.00;;
5939;SDS011;2995;-31.998;115.906;2023-04-15T10:26:37;3.23;;;1.13;;
5939;SDS011;2995;-31.998;115.906;2023-04-15T10:29:09;2.93;;;1.20;;
5939;SDS011;2995;-31.998;115.906;2023-04-15T10:31:40;2.30;;;0.90;;
5939;SDS011;2995;-31.998;115.906;2023-04-15T10:34:14;2.40;;;0.93;;
5939;SDS011;2995;-31.998;115.906;2023-04-15T10:36:46;2.40;;;0.87;;
5939;SDS011;2995;-31.998;115.906;2023-04-15T10:42:10;1.40;;;0.70;;
5939;SDS011;2995;-31.998;115.906;2023-04-15T10:44:42;4.03;;;1.07;;
5939;SDS011;2995;-31.998;115.906;2023-04-15T10:47:18;1.33;;;0.97;;
5939;SDS011;2995;-31.998;115.906;2023-04-15T10:49:57;0.90;;;0.77;;
5939;SDS011;2995;-31.998;115.906;2023-04-15T10:52:29;4.67;;;1.20;;
5939;SDS011;2995;-31.998;115.906;2023-04-15T10:55:12;1.13;;;0.80;;
5939;SDS011;2995;-31.998;115.906;2023-04-15T10:57:44;3.83;;;1.17;;
5939;SDS011;2995;-31.998;115.906;2023-04-15T11:00:15;1.27;;;0.90;;
5939;SDS011;2995;-31.998;115.906;2023-04-15T11:02:48;1.20;;;0.80;;
5939;SDS011;2995;-31.998;115.906;2023-04-15T11:08:21;3.37;;;1.10;;
5939;SDS011;2995;-31.998;115.906;2023-04-15T11:14:27;2.40;;;1.40;;
5939;SDS011;2995;-31.998;115.906;2023-04-15T11:17:01;4.00;;;1.60;;
5939;SDS011;2995;-31.998;115.906;2023-04-15T11:19:35;3.17;;;1.40;;
5939;SDS011;2995;-31.998;115.906;2023-04-15T11:22:09;3.67;;;1.20;;
5939;SDS011;2995;-31.998;115.906;2023-04-15T11:24:46;3.70;;;1.40;;
5939;SDS011;2995;-31.998;115.906;2023-04-15T11:27:21;2.50;;;1.47;;
5939;SDS011;2995;-31.998;115.906;2023-04-15T11:29:52;3.30;;;1.80;;
5939;SDS011;2995;-31.998;115.906;2023-04-15T11:32:26;2.07;;;1.30;;
5939;SDS011;2995;-31.998;115.906;2023-04-15T11:34:58;4.60;;;2.23;;
5939;SDS011;2995;-31.998;115.906;2023-04-15T11:37:34;2.27;;;1.90;;
5939;SDS011;2995;-31.998;115.906;2023-04-15T11:40:05;5.93;;;3.13;;
5939;SDS011;2995;-31.998;115.906;2023-04-15T11:42:37;2.43;;;1.83;;
5939;SDS011;2995;-31.998;115.906;2023-04-15T11:45:09;2.50;;;1.87;;
5939;SDS011;2995;-31.998;115.906;2023-04-15T11:47:41;3.67;;;2.17;;
5939;SDS011;2995;-31.998;115.906;2023-04-15T11:50:16;3.00;;;2.00;;
5939;SDS011;2995;-31.998;115.906;2023-04-15T11:52:57;2.33;;;2.07;;
5939;SDS011;2995;-31.998;115.906;2023-04-15T11:55:29;4.60;;;2.50;;
5939;SDS011;2995;-31.998;115.906;2023-04-15T11:58:09;6.73;;;2.40;;
5939;SDS011;2995;-31.998;115.906;2023-04-15T12:00:45;3.90;;;2.00;;
5939;SDS011;2995;-31.998;115.906;2023-04-15T12:03:18;3.43;;;2.30;;
5939;SDS011;2995;-31.998;115.906;2023-04-15T12:06:03;3.13;;;2.00;;
5939;SDS011;2995;-31.998;115.906;2023-04-15T12:11:42;4.20;;;2.27;;
5939;SDS011;2995;-31.998;115.906;2023-04-15T12:14:21;3.83;;;1.80;;
5939;SDS011;2995;-31.998;115.906;2023-04-15T12:16:54;4.23;;;2.30;;
5939;SDS011;2995;-31.998;115.906;2023-04-15T12:19:28;4.90;;;1.70;;
5939;SDS011;2995;-31.998;115.906;2023-04-15T12:22:04;3.77;;;2.20;;
5939;SDS011;2995;-31.998;115.906;2023-04-15T12:24:40;7.53;;;2.40;;
5939;SDS011;2995;-31.998;115.906;2023-04-15T12:27:13;4.40;;;2.53;;
5939;SDS011;2995;-31.998;115.906;2023-04-15T12:29:45;4.13;;;1.83;;
5939;SDS011;2995;-31.998;115.906;2023-04-15T12:32:16;3.93;;;2.17;;
5939;SDS011;2995;-31.998;115.906;2023-04-15T12:34:49;4.77;;;2.80;;
5939;SDS011;2995;-31.998;115.906;2023-04-15T12:37:20;4.20;;;3.10;;
5939;SDS011;2995;-31.998;115.906;2023-04-15T12:39:53;6.37;;;2.60;;
5939;SDS011;2995;-31.998;115.906;2023-04-15T12:42:25;3.00;;;2.50;;
5939;SDS011;2995;-31.998;115.906;2023-04-15T12:44:56;6.00;;;2.23;;
5939;SDS011;2995;-31.998;115.906;2023-04-15T12:47:27;5.80;;;2.20;;
5939;SDS011;2995;-31.998;115.906;2023-04-15T12:49:58;6.83;;;2.57;;
5939;SDS011;2995;-31.998;115.906;2023-04-15T12:52:30;7.73;;;2.20;;
5939;SDS011;2995;-31.998;115.906;2023-04-15T12:55:03;5.57;;;2.33;;
5939;SDS011;2995;-31.998;115.906;2023-04-15T12:57:35;2.93;;;1.93;;
5939;SDS011;2995;-31.998;115.906;2023-04-15T13:00:07;4.67;;;1.80;;
5939;SDS011;2995;-31.998;115.906;2023-04-15T13:02:39;5.97;;;1.90;;
5939;SDS011;2995;-31.998;115.906;2023-04-15T13:05:11;3.93;;;1.50;;
5939;SDS011;2995;-31.998;115.906;2023-04-15T13:07:42;4.23;;;1.50;;
5939;SDS011;2995;-31.998;115.906;2023-04-15T13:10:16;6.80;;;1.80;;
5939;SDS011;2995;-31.998;115.906;2023-04-15T13:12:48;2.77;;;1.60;;
5939;SDS011;2995;-31.998;115.906;2023-04-15T13:15:21;6.73;;;1.80;;
5939;SDS011;2995;-31.998;115.906;2023-04-15T13:17:53;2.93;;;1.70;;
5939;SDS011;2995;-31.998;115.906;2023-04-15T13:20:24;4.60;;;1.40;;
5939;SDS011;2995;-31.998;115.906;2023-04-15T13:22:56;3.57;;;1.33;;
5939;SDS011;2995;-31.998;115.906;2023-04-15T13:25:29;2.20;;;1.00;;
5939;SDS011;2995;-31.998;115.906;2023-04-15T13:28:00;3.47;;;1.27;;
5939;SDS011;2995;-31.998;115.906;2023-04-15T13:30:31;3.50;;;1.33;;
5939;SDS011;2995;-31.998;115.906;2023-04-15T13:33:03;2.73;;;1.50;;
5939;SDS011;2995;-31.998;115.906;2023-04-15T13:35:34;2.00;;;1.10;;
5939;SDS011;2995;-31.998;115.906;2023-04-15T13:38:06;2.80;;;1.50;;
5939;SDS011;2995;-31.998;115.906;2023-04-15T13:40:39;6.63;;;1.40;;
5939;SDS011;2995;-31.998;115.906;2023-04-15T13:43:10;2.83;;;1.30;;
5939;SDS011;2995;-31.998;115.906;2023-04-15T13:45:41;2.70;;;1.40;;
5939;SDS011;2995;-31.998;115.906;2023-04-15T13:48:13;3.10;;;1.37;;
5939;SDS011;2995;-31.998;115.906;2023-04-15T13:50:44;3.90;;;1.23;;
5939;SDS011;2995;-31.998;115.906;2023-04-15T13:53:15;3.63;;;1.33;;
5939;SDS011;2995;-31.998;115.906;2023-04-15T13:55:48;3.63;;;1.90;;
5939;SDS011;2995;-31.998;115.906;2023-04-15T13:58:19;9.73;;;2.13;;
5939;SDS011;2995;-31.998;115.906;2023-04-15T14:00:51;3.80;;;1.93;;
5939;SDS011;2995;-31.998;115.906;2023-04-15T14:03:22;2.57;;;1.80;;
5939;SDS011;2995;-31.998;115.906;2023-04-15T14:05:53;4.07;;;2.47;;
5939;SDS011;2995;-31.998;115.906;2023-04-15T14:08:24;3.03;;;2.07;;
5939;SDS011;2995;-31.998;115.906;2023-04-15T14:10:57;3.30;;;2.07;;
5939;SDS011;2995;-31.998;115.906;2023-04-15T14:13:29;3.67;;;2.00;;
5939;SDS011;2995;-31.998;115.906;2023-04-15T14:16:00;4.90;;;1.73;;
5939;SDS011;2995;-31.998;115.906;2023-04-15T14:18:32;7.23;;;1.80;;
5939;SDS011;2995;-31.998;115.906;2023-04-15T14:21:04;3.23;;;1.47;;
5939;SDS011;2995;-31.998;115.906;2023-04-15T14:23:36;5.63;;;1.90;;
5939;SDS011;2995;-31.998;115.906;2023-04-15T14:26:09;5.73;;;2.00;;
5939;SDS011;2995;-31.998;115.906;2023-04-15T14:28:41;2.70;;;1.80;;
5939;SDS011;2995;-31.998;115.906;2023-04-15T14:31:13;4.53;;;1.83;;
5939;SDS011;2995;-31.998;115.906;2023-04-15T14:33:45;2.20;;;1.70;;
5939;SDS011;2995;-31.998;115.906;2023-04-15T14:36:16;5.17;;;2.30;;
5939;SDS011;2995;-31.998;115.906;2023-04-15T14:38:47;4.73;;;2.03;;
5939;SDS011;2995;-31.998;115.906;2023-04-15T14:41:20;3.23;;;1.60;;
5939;SDS011;2995;-31.998;115.906;2023-04-15T14:43:52;2.40;;;1.80;;
5939;SDS011;2995;-31.998;115.906;2023-04-15T14:46:23;5.07;;;1.97;;
5939;SDS011;2995;-31.998;115.906;2023-04-15T14:48:55;5.97;;;1.93;;
5939;SDS011;2995;-31.998;115.906;2023-04-15T14:51:26;3.03;;;1.60;;
5939;SDS011;2995;-31.998;115.906;2023-04-15T14:53:57;3.60;;;2.40;;
5939;SDS011;2995;-31.998;115.906;2023-04-15T14:56:30;4.33;;;2.43;;
5939;SDS011;2995;-31.998;115.906;2023-04-15T14:59:02;5.60;;;2.83;;
5939;SDS011;2995;-31.998;115.906;2023-04-15T15:01:33;7.33;;;2.90;;
5939;SDS011;2995;-31.998;115.906;2023-04-15T15:04:04;5.77;;;3.53;;
5939;SDS011;2995;-31.998;115.906;2023-04-15T15:06:35;4.30;;;3.33;;
5939;SDS011;2995;-31.998;115.906;2023-04-15T15:09:07;8.30;;;3.90;;
5939;SDS011;2995;-31.998;115.906;2023-04-15T15:11:40;6.90;;;4.67;;
5939;SDS011;2995;-31.998;115.906;2023-04-15T15:14:11;5.30;;;4.30;;